createdAt,value
2018-06-02T00:04:39.231Z,23.37
2018-06-02T00:09:30.886Z,23.34
2018-06-02T00:14:21.816Z,23.30
2018-06-02T00:19:12.700Z,23.30
2018-06-02T00:24:04.321Z,23.28
2018-06-02T00:28:56.773Z,23.29
2018-06-02T00:33:49.170Z,23.26
2018-06-02T00:38:40.074Z,23.28
2018-06-02T00:43:31.744Z,23.33
2018-06-02T00:48:23.383Z,23.34
2018-06-02T00:53:14.399Z,23.29
2018-06-02T00:58:05.296Z,23.25
2018-06-02T01:02:56.929Z,23.25
2018-06-02T01:07:49.334Z,23.23
2018-06-02T01:12:40.962Z,23.22
2018-06-02T01:17:31.907Z,23.23
2018-06-02T01:22:24.283Z,23.23
2018-06-02T01:27:15.912Z,23.19
2018-06-02T01:32:08.302Z,23.14
2018-06-02T01:36:59.210Z,23.11
2018-06-02T01:41:50.859Z,23.08
2018-06-02T01:46:41.747Z,23.05
2018-06-02T01:51:34.142Z,23.03
2018-06-02T01:56:25.921Z,22.97
2018-06-02T02:01:18.272Z,22.86
2018-06-02T02:06:09.887Z,22.81
2018-06-02T02:11:00.851Z,22.83
2018-06-02T02:15:51.767Z,22.78
2018-06-02T02:20:42.670Z,22.69
2018-06-02T02:25:33.590Z,22.69
2018-06-02T02:30:24.505Z,22.74
2018-06-02T02:35:15.416Z,22.70
2018-06-02T02:40:06.317Z,22.63
2018-06-02T02:44:57.214Z,22.50
2018-06-02T02:49:49.581Z,22.42
2018-06-02T02:54:40.444Z,22.33
2018-06-02T02:59:33.144Z,22.26
2018-06-02T03:04:24.835Z,22.20
2018-06-02T03:09:16.547Z,22.23
2018-06-02T03:14:07.448Z,22.27
2018-06-02T03:18:59.112Z,22.25
2018-06-02T03:23:50.747Z,22.22
2018-06-02T03:28:42.410Z,22.22
2018-06-02T03:33:35.132Z,22.23
2018-06-02T03:38:26.076Z,22.14
2018-06-02T03:43:17.722Z,22.08
2018-06-02T03:48:08.640Z,21.99
2018-06-02T03:52:59.506Z,21.95
2018-06-02T03:57:51.892Z,21.94
2018-06-02T04:02:42.815Z,21.94
2018-06-02T04:07:34.467Z,21.97
2018-06-02T04:12:26.116Z,21.96
2018-06-02T04:17:17.040Z,21.96
2018-06-02T04:22:08.689Z,21.94
2018-06-02T04:27:00.309Z,21.91
2018-06-02T04:31:51.316Z,21.90
2018-06-02T04:36:42.961Z,21.93
2018-06-02T04:41:33.919Z,21.99
2018-06-02T04:46:25.470Z,22.05
2018-06-02T04:51:17.131Z,22.16
2018-06-02T04:56:08.793Z,22.13
2018-06-02T05:00:59.704Z,22.16
2018-06-02T05:05:50.639Z,22.16
2018-06-02T05:10:41.545Z,22.10
2018-06-02T05:15:32.435Z,22.08
2018-06-02T05:20:24.329Z,22.06
2018-06-02T05:25:16.066Z,22.03
2018-06-02T05:30:06.965Z,22.02
2018-06-02T05:34:57.854Z,22.05
2018-06-02T05:39:49.492Z,22.06
2018-06-02T05:44:41.197Z,22.03
2018-06-02T05:49:32.084Z,22.01
2018-06-02T05:54:22.987Z,22.02
2018-06-02T05:59:14.606Z,22.00
2018-06-02T06:04:06.321Z,21.99
2018-06-02T06:08:58.695Z,22.00
2018-06-02T06:13:50.324Z,22.06
2018-06-02T06:18:41.208Z,22.14
2018-06-02T06:23:32.137Z,22.18
2018-06-02T06:28:23.035Z,22.17
2018-06-02T06:33:14.022Z,22.20
2018-06-02T06:38:04.846Z,22.18
2018-06-02T06:42:56.539Z,22.17
2018-06-02T06:47:47.458Z,22.25
2018-06-02T06:52:38.358Z,22.29
2018-06-02T06:57:30.007Z,22.34
2018-06-02T07:02:21.654Z,22.44
2018-06-02T07:07:13.296Z,22.49
2018-06-02T07:12:05.035Z,22.52
2018-06-02T07:16:56.735Z,22.59
2018-06-02T07:21:47.672Z,22.66
2018-06-02T07:26:38.598Z,22.73
2018-06-02T07:31:30.208Z,22.81
2018-06-02T07:36:21.108Z,22.98
2018-06-02T07:41:12.760Z,23.24
2018-06-02T07:46:04.411Z,23.64
2018-06-02T07:50:55.354Z,24.45
2018-06-02T07:55:46.225Z,25.10
2018-06-02T08:00:37.148Z,25.54
2018-06-02T08:05:29.573Z,25.38
2018-06-02T08:10:21.236Z,25.45
2018-06-02T08:15:12.115Z,25.62
2018-06-02T08:20:03.767Z,26.05
2018-06-02T08:24:54.819Z,26.52
2018-06-02T08:29:47.185Z,26.61
2018-06-02T08:34:39.558Z,26.53
2018-06-02T08:39:31.195Z,26.31
2018-06-02T08:44:22.882Z,26.21
2018-06-02T08:49:13.773Z,26.09
2018-06-02T08:54:05.414Z,26.07
2018-06-02T08:58:57.075Z,26.05
2018-06-02T09:03:48.703Z,26.38
2018-06-02T09:08:39.618Z,26.60
2018-06-02T09:13:30.531Z,26.48
2018-06-02T09:18:22.176Z,26.33
2018-06-02T09:23:13.816Z,26.18
2018-06-02T09:28:05.475Z,26.05
2018-06-02T09:32:56.356Z,25.92
2018-06-02T09:37:47.993Z,25.86
2018-06-02T09:42:39.677Z,25.78
2018-06-02T09:47:30.612Z,25.78
2018-06-02T09:52:21.529Z,25.80
2018-06-02T09:57:12.449Z,25.88
2018-06-02T10:02:03.399Z,25.93
2018-06-02T10:06:55.784Z,25.92
2018-06-02T10:11:47.493Z,25.92
2018-06-02T10:16:39.878Z,25.88
2018-06-02T10:21:31.541Z,25.91
2018-06-02T10:26:22.452Z,26.00
2018-06-02T10:31:13.398Z,26.07
2018-06-02T10:36:04.299Z,26.11
2018-06-02T10:40:55.232Z,26.12
2018-06-02T10:45:46.150Z,26.16
2018-06-02T10:50:37.052Z,26.25
2018-06-02T10:55:27.964Z,26.42
2018-06-02T11:00:18.854Z,26.63
2018-06-02T11:05:11.242Z,26.77
2018-06-02T11:10:02.203Z,26.93
2018-06-02T11:14:53.854Z,27.15
2018-06-02T11:19:44.809Z,27.23
2018-06-02T11:24:36.458Z,27.27
2018-06-02T11:29:28.119Z,27.32
2018-06-02T11:34:19.746Z,27.50
2018-06-02T11:39:11.406Z,27.65
2018-06-02T11:44:02.287Z,27.68
2018-06-02T11:48:53.957Z,27.61
2018-06-02T11:53:44.896Z,27.60
2018-06-02T11:58:36.553Z,27.66
2018-06-02T12:03:27.521Z,27.79
2018-06-02T12:08:18.469Z,27.83
2018-06-02T12:13:11.212Z,27.81
2018-06-02T12:18:03.127Z,27.78
2018-06-02T12:22:54.051Z,27.78
2018-06-02T12:27:45.745Z,27.77
2018-06-02T12:32:36.652Z,27.76
2018-06-02T12:37:27.522Z,27.77
2018-06-02T12:42:19.136Z,27.80
2018-06-02T12:47:10.791Z,27.79
2018-06-02T12:52:01.699Z,27.73
2018-06-02T12:56:53.358Z,27.62
2018-06-02T13:01:45.101Z,27.63
2018-06-02T13:06:36.859Z,27.46
2018-06-02T13:11:27.787Z,27.38
2018-06-02T13:16:19.407Z,27.39
2018-06-02T13:21:11.108Z,27.38
2018-06-02T13:26:02.712Z,27.39
2018-06-02T13:30:54.361Z,27.33
2018-06-02T13:35:45.236Z,27.24
2018-06-02T13:40:37.622Z,27.22
2018-06-02T13:45:29.333Z,27.24
2018-06-02T13:50:21.731Z,27.29
2018-06-02T13:55:13.380Z,27.41
2018-06-02T14:00:05.041Z,27.47
2018-06-02T14:04:55.919Z,27.55
2018-06-02T14:09:47.591Z,27.50
2018-06-02T14:14:39.229Z,27.58
2018-06-02T14:19:30.848Z,27.63
2018-06-02T14:24:22.513Z,27.60
2018-06-02T14:29:13.410Z,27.55
2018-06-02T14:34:04.309Z,27.57
2018-06-02T14:38:55.955Z,27.51
2018-06-02T14:43:47.717Z,27.42
2018-06-02T14:48:39.355Z,27.30
2018-06-02T14:53:30.260Z,27.31
2018-06-02T14:58:21.881Z,27.29
2018-06-02T15:03:12.878Z,27.33
2018-06-02T15:08:03.754Z,27.32
2018-06-02T15:12:54.705Z,27.24
2018-06-02T15:17:45.640Z,27.31
2018-06-02T15:22:36.485Z,27.32
2018-06-02T15:27:28.146Z,27.30
2018-06-02T15:32:19.043Z,27.38
2018-06-02T15:37:10.681Z,27.52
2018-06-02T15:42:02.346Z,27.58
2018-06-02T15:46:53.262Z,27.58
2018-06-02T15:51:44.163Z,27.58
2018-06-02T15:56:35.826Z,27.55
2018-06-02T16:01:27.472Z,27.58
2018-06-02T16:06:19.120Z,27.56
2018-06-02T16:11:10.042Z,27.52
2018-06-02T16:16:01.048Z,27.49
2018-06-02T16:20:52.038Z,27.47
2018-06-02T16:25:43.687Z,27.47
2018-06-02T16:30:34.600Z,27.44
2018-06-02T16:35:26.969Z,27.42
2018-06-02T16:40:17.965Z,27.39
2018-06-02T16:45:10.373Z,27.34
2018-06-02T16:50:01.311Z,27.28
2018-06-02T16:54:53.774Z,27.24
2018-06-02T16:59:46.199Z,27.22
2018-06-02T17:04:37.197Z,27.18
2018-06-02T17:09:28.821Z,27.13
2018-06-02T17:14:20.493Z,27.09
2018-06-02T17:19:11.421Z,27.08
2018-06-02T17:24:02.328Z,26.98
2018-06-02T17:28:53.224Z,26.89
2018-06-02T17:33:44.137Z,26.82
2018-06-02T17:38:35.786Z,26.77
2018-06-02T17:43:26.636Z,26.74
2018-06-02T17:48:17.541Z,26.68
2018-06-02T17:53:08.464Z,26.65
2018-06-02T17:57:59.351Z,26.68
2018-06-02T18:02:50.988Z,26.70
2018-06-02T18:07:42.661Z,26.62
2018-06-02T18:12:33.588Z,26.59
2018-06-02T18:17:24.466Z,26.51
2018-06-02T18:22:16.114Z,26.47
2018-06-02T18:27:07.021Z,26.41
2018-06-02T18:31:59.837Z,26.26
2018-06-02T18:36:50.772Z,26.18
2018-06-02T18:41:41.648Z,26.10
2018-06-02T18:46:32.552Z,26.06
2018-06-02T18:51:24.245Z,25.94
2018-06-02T18:56:15.166Z,25.95
2018-06-02T19:01:06.066Z,25.88
2018-06-02T19:05:57.729Z,25.79
2018-06-02T19:10:48.612Z,25.73
2018-06-02T19:15:39.546Z,25.78
2018-06-02T19:20:30.451Z,25.69
2018-06-02T19:25:22.867Z,25.69
2018-06-02T19:30:13.737Z,25.67
2018-06-02T19:35:04.601Z,25.53
2018-06-02T19:39:55.509Z,25.30
2018-06-02T19:44:47.498Z,25.10
2018-06-02T19:49:39.172Z,24.94
2018-06-02T19:54:30.171Z,24.84
2018-06-02T19:59:21.092Z,24.81
2018-06-02T20:04:11.992Z,24.82
2018-06-02T20:09:02.968Z,24.86
2018-06-02T20:13:54.592Z,24.87
2018-06-02T20:18:45.472Z,24.86
2018-06-02T20:23:37.103Z,24.78
2018-06-02T20:28:28.000Z,24.66
2018-06-02T20:33:19.644Z,24.60
2018-06-02T20:38:10.549Z,24.56
2018-06-02T20:43:02.951Z,24.54
2018-06-02T20:47:54.571Z,24.47
2018-06-02T20:52:45.460Z,24.44
2018-06-02T20:57:37.075Z,24.44
2018-06-02T21:02:29.492Z,24.42
2018-06-02T21:07:21.119Z,24.30
2018-06-02T21:12:13.554Z,24.15
2018-06-02T21:17:04.459Z,24.03
2018-06-02T21:21:55.360Z,23.95
2018-06-02T21:26:46.247Z,23.84
2018-06-02T21:31:37.137Z,23.78
2018-06-02T21:36:28.798Z,23.73
2018-06-02T21:41:19.743Z,23.71
2018-06-02T21:46:10.705Z,23.67
2018-06-02T21:51:02.337Z,23.65
2018-06-02T21:55:53.972Z,23.62
2018-06-02T22:00:45.610Z,23.61
2018-06-02T22:05:37.223Z,23.60
2018-06-02T22:10:28.127Z,23.52
2018-06-02T22:15:20.532Z,23.48
2018-06-02T22:20:12.178Z,23.47
2018-06-02T22:25:04.577Z,23.42
2018-06-02T22:29:55.473Z,23.40
2018-06-02T22:34:47.136Z,23.33
2018-06-02T22:39:38.046Z,23.26
2018-06-02T22:44:29.749Z,23.22
2018-06-02T22:49:22.478Z,23.23
2018-06-02T22:54:14.145Z,23.26
2018-06-02T22:59:05.829Z,23.20
2018-06-02T23:03:58.624Z,23.17
2018-06-02T23:08:49.523Z,23.09
2018-06-02T23:13:40.438Z,23.04
2018-06-02T23:18:32.105Z,22.97
2018-06-02T23:23:23.775Z,22.91
2018-06-02T23:28:15.428Z,22.87
2018-06-02T23:33:07.096Z,22.86
2018-06-02T23:37:58.753Z,22.89
2018-06-02T23:42:51.448Z,22.91
2018-06-02T23:47:42.348Z,22.89
2018-06-02T23:52:34.766Z,22.81
2018-06-02T23:57:27.163Z,22.78
